sensor_id;sensor_type;location;lat;lon;timestamp;temperature;humidity
612;DHT22;293;53.888;11.464;2023-04-03T00:02:02;2.30;99.90
612;DHT22;293;53.888;11.464;2023-04-03T00:04:29;2.20;99.90
612;DHT22;293;53.888;11.464;2023-04-03T00:06:56;2.20;99.90
612;DHT22;293;53.888;11.464;2023-04-03T00:09:24;2.10;99.90
612;DHT22;293;53.888;11.464;2023-04-03T00:11:51;2.00;99.90
612;DHT22;293;53.888;11.464;2023-04-03T00:14:18;2.00;99.90
612;DHT22;293;53.888;11.464;2023-04-03T00:16:45;2.00;99.90
612;DHT22;293;53.888;11.464;2023-04-03T00:19:12;2.00;99.90
612;DHT22;293;53.888;11.464;2023-04-03T00:21:39;2.10;99.90
612;DHT22;293;53.888;11.464;2023-04-03T00:24:06;2.00;99.90
612;DHT22;293;53.888;11.464;2023-04-03T00:26:35;2.00;99.90
612;DHT22;293;53.888;11.464;2023-04-03T00:29:01;2.00;99.90
612;DHT22;293;53.888;11.464;2023-04-03T00:31:28;2.00;99.90
612;DHT22;293;53.888;11.464;2023-04-03T00:33:55;2.00;99.90
612;DHT22;293;53.888;11.464;2023-04-03T00:36:22;2.10;99.90
612;DHT22;293;53.888;11.464;2023-04-03T00:38:49;2.10;99.90
612;DHT22;293;53.888;11.464;2023-04-03T00:41:15;2.10;99.90
612;DHT22;293;53.888;11.464;2023-04-03T00:43:44;2.20;99.90
612;DHT22;293;53.888;11.464;2023-04-03T00:46:11;2.10;99.90
612;DHT22;293;53.888;11.464;2023-04-03T00:48:41;2.10;99.90
612;DHT22;293;53.888;11.464;2023-04-03T00:51:11;2.10;99.90
612;DHT22;293;53.888;11.464;2023-04-03T00:53:41;2.10;99.90
612;DHT22;293;53.888;11.464;2023-04-03T00:56:13;2.20;99.90
612;DHT22;293;53.888;11.464;2023-04-03T00:58:45;2.30;99.90
612;DHT22;293;53.888;11.464;2023-04-03T01:01:18;2.30;99.90
612;DHT22;293;53.888;11.464;2023-04-03T01:03:46;2.30;99.90
612;DHT22;293;53.888;11.464;2023-04-03T01:06:14;2.30;99.90
612;DHT22;293;53.888;11.464;2023-04-03T01:08:43;2.30;99.90
612;DHT22;293;53.888;11.464;2023-04-03T01:11:12;2.30;99.90
612;DHT22;293;53.888;11.464;2023-04-03T01:13:39;2.40;99.90
612;DHT22;293;53.888;11.464;2023-04-03T01:16:07;2.30;99.90
612;DHT22;293;53.888;11.464;2023-04-03T01:18:37;2.30;99.90
612;DHT22;293;53.888;11.464;2023-04-03T01:21:25;2.30;99.90
612;DHT22;293;53.888;11.464;2023-04-03T01:24:22;2.20;99.90
612;DHT22;293;53.888;11.464;2023-04-03T01:26:51;2.20;99.90
612;DHT22;293;53.888;11.464;2023-04-03T01:29:18;3.10;99.90
612;DHT22;293;53.888;11.464;2023-04-03T01:31:49;2.30;99.90
612;DHT22;293;53.888;11.464;2023-04-03T01:34:17;2.20;99.90
612;DHT22;293;53.888;11.464;2023-04-03T01:36:44;2.30;99.90
612;DHT22;293;53.888;11.464;2023-04-03T01:39:11;2.30;99.90
612;DHT22;293;53.888;11.464;2023-04-03T01:41:38;2.30;99.90
612;DHT22;293;53.888;11.464;2023-04-03T01:44:05;2.30;99.90
612;DHT22;293;53.888;11.464;2023-04-03T01:46:32;2.30;99.90
612;DHT22;293;53.888;11.464;2023-04-03T01:49:01;2.30;99.90
612;DHT22;293;53.888;11.464;2023-04-03T01:51:28;2.20;99.90
612;DHT22;293;53.888;11.464;2023-04-03T01:53:55;2.30;99.90
612;DHT22;293;53.888;11.464;2023-04-03T01:56:22;2.30;99.90
612;DHT22;293;53.888;11.464;2023-04-03T01:58:48;2.30;99.90
612;DHT22;293;53.888;11.464;2023-04-03T02:01:15;2.30;99.90
612;DHT22;293;53.888;11.464;2023-04-03T02:03:42;2.30;99.90
612;DHT22;293;53.888;11.464;2023-04-03T02:06:10;2.40;99.90
612;DHT22;293;53.888;11.464;2023-04-03T02:08:37;2.30;99.90
612;DHT22;293;53.888;11.464;2023-04-03T02:11:04;2.40;99.90
612;DHT22;293;53.888;11.464;2023-04-03T02:13:31;2.30;99.90
612;DHT22;293;53.888;11.464;2023-04-03T02:15:58;2.40;99.90
612;DHT22;293;53.888;11.464;2023-04-03T02:18:25;2.40;99.90
612;DHT22;293;53.888;11.464;2023-04-03T02:20:52;2.30;99.90
612;DHT22;293;53.888;11.464;2023-04-03T02:23:20;2.30;99.90
612;DHT22;293;53.888;11.464;2023-04-03T02:25:47;2.30;99.90
612;DHT22;293;53.888;11.464;2023-04-03T02:28:14;2.30;99.90
612;DHT22;293;53.888;11.464;2023-04-03T02:30:41;2.20;99.90
612;DHT22;293;53.888;11.464;2023-04-03T02:33:08;2.20;99.90
612;DHT22;293;53.888;11.464;2023-04-03T02:35:35;2.20;99.90
612;DHT22;293;53.888;11.464;2023-04-03T02:38:02;2.20;99.90
612;DHT22;293;53.888;11.464;2023-04-03T02:40:30;2.20;99.90
612;DHT22;293;53.888;11.464;2023-04-03T02:42:57;2.20;99.90
612;DHT22;293;53.888;11.464;2023-04-03T02:45:24;2.20;99.90
612;DHT22;293;53.888;11.464;2023-04-03T02:47:51;2.10;99.90
612;DHT22;293;53.888;11.464;2023-04-03T02:50:18;2.10;99.90
612;DHT22;293;53.888;11.464;2023-04-03T02:52:45;2.10;99.90
612;DHT22;293;53.888;11.464;2023-04-03T02:55:14;2.10;99.90
612;DHT22;293;53.888;11.464;2023-04-03T02:57:42;2.10;99.90
612;DHT22;293;53.888;11.464;2023-04-03T03:00:10;2.10;99.90
612;DHT22;293;53.888;11.464;2023-04-03T03:02:37;2.10;99.90
612;DHT22;293;53.888;11.464;2023-04-03T03:05:04;2.10;99.90
612;DHT22;293;53.888;11.464;2023-04-03T03:07:32;2.00;99.90
612;DHT22;293;53.888;11.464;2023-04-03T03:09:59;2.00;99.90
612;DHT22;293;53.888;11.464;2023-04-03T03:12:25;2.00;99.90
612;DHT22;293;53.888;11.464;2023-04-03T03:14:54;2.00;99.90
612;DHT22;293;53.888;11.464;2023-04-03T03:17:21;1.90;99.90
612;DHT22;293;53.888;11.464;2023-04-03T03:19:47;1.90;99.90
612;DHT22;293;53.888;11.464;2023-04-03T03:22:16;1.80;99.90
612;DHT22;293;53.888;11.464;2023-04-03T03:24:43;1.80;99.90
612;DHT22;293;53.888;11.464;2023-04-03T03:27:10;1.80;99.90
612;DHT22;293;53.888;11.464;2023-04-03T03:29:37;1.80;99.90
612;DHT22;293;53.888;11.464;2023-04-03T03:32:06;1.70;99.90
612;DHT22;293;53.888;11.464;2023-04-03T03:34:32;1.70;99.90
612;DHT22;293;53.888;11.464;2023-04-03T03:36:59;1.70;99.90
612;DHT22;293;53.888;11.464;2023-04-03T03:39:26;1.70;99.90
612;DHT22;293;53.888;11.464;2023-04-03T03:41:53;1.60;99.90
612;DHT22;293;53.888;11.464;2023-04-03T03:44:20;1.60;99.90
612;DHT22;293;53.888;11.464;2023-04-03T03:46:47;1.60;99.90
612;DHT22;293;53.888;11.464;2023-04-03T03:49:15;1.60;99.90
612;DHT22;293;53.888;11.464;2023-04-03T03:51:42;1.60;99.90
612;DHT22;293;53.888;11.464;2023-04-03T03:54:09;1.60;99.90
612;DHT22;293;53.888;11.464;2023-04-03T03:56:36;1.50;99.90
612;DHT22;293;53.888;11.464;2023-04-03T03:59:03;1.50;99.90
612;DHT22;293;53.888;11.464;2023-04-03T04:01:30;1.40;99.90
612;DHT22;293;53.888;11.464;2023-04-03T04:03:57;1.40;99.90
612;DHT22;293;53.888;11.464;2023-04-03T04:06:26;1.30;99.90
612;DHT22;293;53.888;11.464;2023-04-03T04:08:53;1.30;99.90
612;DHT22;293;53.888;11.464;2023-04-03T04:11:19;1.30;99.90
612;DHT22;293;53.888;11.464;2023-04-03T04:13:47;1.20;99.90
612;DHT22;293;53.888;11.464;2023-04-03T04:16:14;1.20;99.90
612;DHT22;293;53.888;11.464;2023-04-03T04:18:41;1.20;99.90
612;DHT22;293;53.888;11.464;2023-04-03T04:21:08;1.10;99.90
612;DHT22;293;53.888;11.464;2023-04-03T04:23:36;1.10;99.90
612;DHT22;293;53.888;11.464;2023-04-03T04:26:03;1.10;99.90
612;DHT22;293;53.888;11.464;2023-04-03T04:28:30;1.10;99.90
612;DHT22;293;53.888;11.464;2023-04-03T04:30:57;1.10;99.90
612;DHT22;293;53.888;11.464;2023-04-03T04:33:24;1.20;99.90
612;DHT22;293;53.888;11.464;2023-04-03T04:35:51;1.30;99.90
612;DHT22;293;53.888;11.464;2023-04-03T04:38:17;1.30;99.90
612;DHT22;293;53.888;11.464;2023-04-03T04:40:47;1.30;99.90
612;DHT22;293;53.888;11.464;2023-04-03T04:43:14;1.30;99.90
612;DHT22;293;53.888;11.464;2023-04-03T04:45:41;1.30;99.90
612;DHT22;293;53.888;11.464;2023-04-03T04:48:08;1.40;99.90
612;DHT22;293;53.888;11.464;2023-04-03T04:50:35;1.40;99.90
612;DHT22;293;53.888;11.464;2023-04-03T04:53:01;1.50;99.90
612;DHT22;293;53.888;11.464;2023-04-03T04:55:29;1.60;99.90
612;DHT22;293;53.888;11.464;2023-04-03T04:57:58;1.60;99.90
612;DHT22;293;53.888;11.464;2023-04-03T05:00:24;1.70;99.90
612;DHT22;293;53.888;11.464;2023-04-03T05:02:51;1.80;99.90
612;DHT22;293;53.888;11.464;2023-04-03T05:05:18;1.80;99.90
612;DHT22;293;53.888;11.464;2023-04-03T05:07:45;1.90;99.90
612;DHT22;293;53.888;11.464;2023-04-03T05:10:12;1.90;99.90
612;DHT22;293;53.888;11.464;2023-04-03T05:12:39;2.10;99.90
612;DHT22;293;53.888;11.464;2023-04-03T05:15:08;2.40;99.90
612;DHT22;293;53.888;11.464;2023-04-03T05:17:35;3.00;99.90
612;DHT22;293;53.888;11.464;2023-04-03T05:20:03;3.80;99.90
612;DHT22;293;53.888;11.464;2023-04-03T05:22:30;4.90;99.90
612;DHT22;293;53.888;11.464;2023-04-03T05:24:57;6.20;99.90
612;DHT22;293;53.888;11.464;2023-04-03T05:27:24;7.50;99.90
612;DHT22;293;53.888;11.464;2023-04-03T05:29:54;8.70;99.90
612;DHT22;293;53.888;11.464;2023-04-03T05:32:23;9.90;98.40
612;DHT22;293;53.888;11.464;2023-04-03T05:34:50;11.10;96.10
612;DHT22;293;53.888;11.464;2023-04-03T05:37:18;12.20;93.60
612;DHT22;293;53.888;11.464;2023-04-03T05:39:45;13.30;91.80
612;DHT22;293;53.888;11.464;2023-04-03T05:42:12;14.20;89.70
612;DHT22;293;53.888;11.464;2023-04-03T05:44:39;15.10;86.30
612;DHT22;293;53.888;11.464;2023-04-03T05:47:06;15.70;82.90
612;DHT22;293;53.888;11.464;2023-04-03T05:49:34;16.20;80.60
612;DHT22;293;53.888;11.464;2023-04-03T05:52:01;17.00;77.50
612;DHT22;293;53.888;11.464;2023-04-03T05:54:29;17.70;73.20
612;DHT22;293;53.888;11.464;2023-04-03T05:56:56;18.40;70.80
612;DHT22;293;53.888;11.464;2023-04-03T05:59:23;19.00;67.40
612;DHT22;293;53.888;11.464;2023-04-03T06:01:50;19.40;65.70
612;DHT22;293;53.888;11.464;2023-04-03T06:04:17;19.50;62.60
612;DHT22;293;53.888;11.464;2023-04-03T06:06:48;19.60;60.90
612;DHT22;293;53.888;11.464;2023-04-03T06:09:17;19.20;58.00
612;DHT22;293;53.888;11.464;2023-04-03T06:11:45;17.70;58.50
612;DHT22;293;53.888;11.464;2023-04-03T06:14:11;17.20;58.90
612;DHT22;293;53.888;11.464;2023-04-03T06:16:39;16.50;60.10
612;DHT22;293;53.888;11.464;2023-04-03T06:19:06;15.20;61.70
612;DHT22;293;53.888;11.464;2023-04-03T06:21:34;13.70;63.10
612;DHT22;293;53.888;11.464;2023-04-03T06:24:02;12.00;66.00
612;DHT22;293;53.888;11.464;2023-04-03T06:26:29;10.70;69.80
612;DHT22;293;53.888;11.464;2023-04-03T06:28:56;9.60;74.10
612;DHT22;293;53.888;11.464;2023-04-03T06:31:23;8.80;77.60
612;DHT22;293;53.888;11.464;2023-04-03T06:33:50;8.10;80.80
612;DHT22;293;53.888;11.464;2023-04-03T06:36:18;7.60;83.80
612;DHT22;293;53.888;11.464;2023-04-03T06:38:46;7.20;86.40
612;DHT22;293;53.888;11.464;2023-04-03T06:41:15;6.90;90.00
612;DHT22;293;53.888;11.464;2023-04-03T06:43:43;6.70;90.70
612;DHT22;293;53.888;11.464;2023-04-03T06:46:14;6.40;91.20
612;DHT22;293;53.888;11.464;2023-04-03T06:48:42;6.20;91.60
612;DHT22;293;53.888;11.464;2023-04-03T06:51:17;6.00;92.00
612;DHT22;293;53.888;11.464;2023-04-03T06:53:45;5.80;92.80
612;DHT22;293;53.888;11.464;2023-04-03T06:56:16;5.70;93.50
612;DHT22;293;53.888;11.464;2023-04-03T06:58:43;5.60;93.70
612;DHT22;293;53.888;11.464;2023-04-03T07:01:12;5.50;93.90
612;DHT22;293;53.888;11.464;2023-04-03T07:03:39;5.40;94.10
612;DHT22;293;53.888;11.464;2023-04-03T07:06:07;5.30;94.50
612;DHT22;293;53.888;11.464;2023-04-03T07:08:36;5.20;95.10
612;DHT22;293;53.888;11.464;2023-04-03T07:11:03;5.10;95.30
612;DHT22;293;53.888;11.464;2023-04-03T07:13:32;5.10;94.90
612;DHT22;293;53.888;11.464;2023-04-03T07:15:59;5.00;95.10
612;DHT22;293;53.888;11.464;2023-04-03T07:18:26;5.30;95.40
612;DHT22;293;53.888;11.464;2023-04-03T07:20:53;4.90;95.50
612;DHT22;293;53.888;11.464;2023-04-03T07:23:21;4.90;95.50
612;DHT22;293;53.888;11.464;2023-04-03T07:25:49;5.00;95.70
612;DHT22;293;53.888;11.464;2023-04-03T07:28:17;5.00;95.90
612;DHT22;293;53.888;11.464;2023-04-03T07:30:47;5.10;95.60
612;DHT22;293;53.888;11.464;2023-04-03T07:33:15;5.10;95.70
612;DHT22;293;53.888;11.464;2023-04-03T07:35:44;4.90;95.70
612;DHT22;293;53.888;11.464;2023-04-03T07:38:11;5.00;96.10
612;DHT22;293;53.888;11.464;2023-04-03T07:40:38;5.10;95.70
612;DHT22;293;53.888;11.464;2023-04-03T07:43:06;5.10;95.80
612;DHT22;293;53.888;11.464;2023-04-03T07:45:34;5.20;95.80
612;DHT22;293;53.888;11.464;2023-04-03T07:48:03;5.10;95.70
612;DHT22;293;53.888;11.464;2023-04-03T07:50:30;5.20;95.50
612;DHT22;293;53.888;11.464;2023-04-03T07:52:58;5.20;95.30
612;DHT22;293;53.888;11.464;2023-04-03T07:55:27;5.20;95.50
612;DHT22;293;53.888;11.464;2023-04-03T07:57:53;5.20;95.20
612;DHT22;293;53.888;11.464;2023-04-03T08:00:21;5.10;95.10
612;DHT22;293;53.888;11.464;2023-04-03T08:02:48;5.10;95.10
612;DHT22;293;53.888;11.464;2023-04-03T08:05:18;5.10;95.20
612;DHT22;293;53.888;11.464;2023-04-03T08:07:45;5.10;95.70
612;DHT22;293;53.888;11.464;2023-04-03T08:10:13;5.20;95.40
612;DHT22;293;53.888;11.464;2023-04-03T08:12:41;5.30;95.20
612;DHT22;293;53.888;11.464;2023-04-03T08:15:08;5.40;95.20
612;DHT22;293;53.888;11.464;2023-04-03T08:17:36;5.40;94.90
612;DHT22;293;53.888;11.464;2023-04-03T08:20:05;5.50;95.10
612;DHT22;293;53.888;11.464;2023-04-03T08:22:34;5.60;95.00
612;DHT22;293;53.888;11.464;2023-04-03T08:25:01;5.70;94.40
612;DHT22;293;53.888;11.464;2023-04-03T08:27:28;5.80;94.30
612;DHT22;293;53.888;11.464;2023-04-03T08:29:55;5.90;94.50
612;DHT22;293;53.888;11.464;2023-04-03T08:32:22;6.00;93.70
612;DHT22;293;53.888;11.464;2023-04-03T08:34:49;5.80;93.50
612;DHT22;293;53.888;11.464;2023-04-03T08:37:16;5.80;93.60
612;DHT22;293;53.888;11.464;2023-04-03T08:39:44;5.80;93.80
612;DHT22;293;53.888;11.464;2023-04-03T08:42:19;5.80;93.10
612;DHT22;293;53.888;11.464;2023-04-03T08:44:55;5.90;93.10
612;DHT22;293;53.888;11.464;2023-04-03T08:47:27;5.90;93.00
612;DHT22;293;53.888;11.464;2023-04-03T08:49:57;5.90;93.50
612;DHT22;293;53.888;11.464;2023-04-03T08:52:34;6.00;93.30
612;DHT22;293;53.888;11.464;2023-04-03T08:55:06;6.00;92.80
612;DHT22;293;53.888;11.464;2023-04-03T08:57:36;6.20;92.80
612;DHT22;293;53.888;11.464;2023-04-03T09:00:15;6.20;92.90
612;DHT22;293;53.888;11.464;2023-04-03T09:02:45;6.30;92.80
612;DHT22;293;53.888;11.464;2023-04-03T09:05:14;6.30;93.20
612;DHT22;293;53.888;11.464;2023-04-03T09:07:44;6.40;93.00
612;DHT22;293;53.888;11.464;2023-04-03T09:10:14;6.50;92.60
612;DHT22;293;53.888;11.464;2023-04-03T09:12:43;6.60;92.30
612;DHT22;293;53.888;11.464;2023-04-03T09:15:18;6.70;92.00
612;DHT22;293;53.888;11.464;2023-04-03T09:17:53;6.80;92.20
612;DHT22;293;53.888;11.464;2023-04-03T09:20:27;7.00;91.90
612;DHT22;293;53.888;11.464;2023-04-03T09:22:57;7.10;91.40
612;DHT22;293;53.888;11.464;2023-04-03T09:25:27;7.30;91.10
612;DHT22;293;53.888;11.464;2023-04-03T09:27:59;7.30;91.20
612;DHT22;293;53.888;11.464;2023-04-03T09:30:27;7.50;91.00
612;DHT22;293;53.888;11.464;2023-04-03T09:32:55;7.60;90.40
612;DHT22;293;53.888;11.464;2023-04-03T09:35:25;7.60;89.80
612;DHT22;293;53.888;11.464;2023-04-03T09:37:53;7.50;88.20
612;DHT22;293;53.888;11.464;2023-04-03T09:40:33;7.40;88.70
612;DHT22;293;53.888;11.464;2023-04-03T09:43:08;7.40;87.90
612;DHT22;293;53.888;11.464;2023-04-03T09:45:47;7.50;85.50
612;DHT22;293;53.888;11.464;2023-04-03T09:48:16;7.50;85.20
612;DHT22;293;53.888;11.464;2023-04-03T09:50:58;7.50;86.60
612;DHT22;293;53.888;11.464;2023-04-03T09:53:31;7.60;86.50
612;DHT22;293;53.888;11.464;2023-04-03T09:56:02;7.70;85.30
612;DHT22;293;53.888;11.464;2023-04-03T09:58:31;7.80;84.90
612;DHT22;293;53.888;11.464;2023-04-03T10:01:00;7.70;84.90
612;DHT22;293;53.888;11.464;2023-04-03T10:03:30;7.70;83.70
612;DHT22;293;53.888;11.464;2023-04-03T10:06:00;7.50;82.90
612;DHT22;293;53.888;11.464;2023-04-03T10:08:30;7.50;84.10
612;DHT22;293;53.888;11.464;2023-04-03T10:11:13;7.50;83.70
612;DHT22;293;53.888;11.464;2023-04-03T10:13:52;7.50;83.00
612;DHT22;293;53.888;11.464;2023-04-03T10:16:23;7.50;83.80
612;DHT22;293;53.888;11.464;2023-04-03T10:21:46;7.40;83.20
612;DHT22;293;53.888;11.464;2023-04-03T10:24:20;7.30;84.40
612;DHT22;293;53.888;11.464;2023-04-03T10:26:54;7.50;84.50
612;DHT22;293;53.888;11.464;2023-04-03T10:29:34;7.50;83.90
612;DHT22;293;53.888;11.464;2023-04-03T10:32:13;7.40;85.40
612;DHT22;293;53.888;11.464;2023-04-03T10:34:44;7.50;86.90
612;DHT22;293;53.888;11.464;2023-04-03T10:37:17;7.50;85.20
612;DHT22;293;53.888;11.464;2023-04-03T10:39:52;7.50;83.20
612;DHT22;293;53.888;11.464;2023-04-03T10:42:28;7.40;83.40
612;DHT22;293;53.888;11.464;2023-04-03T10:45:19;7.30;82.50
612;DHT22;293;53.888;11.464;2023-04-03T10:47:54;7.20;83.30
612;DHT22;293;53.888;11.464;2023-04-03T10:50:31;7.10;84.70
612;DHT22;293;53.888;11.464;2023-04-03T10:53:08;7.20;84.40
612;DHT22;293;53.888;11.464;2023-04-03T10:55:43;7.20;84.30
612;DHT22;293;53.888;11.464;2023-04-03T10:58:20;7.20;85.10
612;DHT22;293;53.888;11.464;2023-04-03T11:00:49;7.10;84.10
612;DHT22;293;53.888;11.464;2023-04-03T11:03:26;7.00;84.90
612;DHT22;293;53.888;11.464;2023-04-03T11:05:55;7.00;85.90
612;DHT22;293;53.888;11.464;2023-04-03T11:08:28;6.90;84.20
612;DHT22;293;53.888;11.464;2023-04-03T11:11:01;6.80;82.40
612;DHT22;293;53.888;11.464;2023-04-03T11:13:34;6.80;80.70
612;DHT22;293;53.888;11.464;2023-04-03T11:16:04;6.80;82.20
612;DHT22;293;53.888;11.464;2023-04-03T11:18:37;6.60;81.70
612;DHT22;293;53.888;11.464;2023-04-03T11:21:07;6.60;82.40
612;DHT22;293;53.888;11.464;2023-04-03T11:23:37;6.70;82.00
612;DHT22;293;53.888;11.464;2023-04-03T11:26:10;6.60;81.10
612;DHT22;293;53.888;11.464;2023-04-03T11:28:39;6.50;78.10
612;DHT22;293;53.888;11.464;2023-04-03T11:31:19;6.40;76.80
612;DHT22;293;53.888;11.464;2023-04-03T11:33:53;6.40;78.00
612;DHT22;293;53.888;11.464;2023-04-03T11:36:23;6.40;78.60
612;DHT22;293;53.888;11.464;2023-04-03T11:38:54;6.40;80.30
612;DHT22;293;53.888;11.464;2023-04-03T11:41:26;6.40;78.40
612;DHT22;293;53.888;11.464;2023-04-03T11:44:00;6.50;77.10
612;DHT22;293;53.888;11.464;2023-04-03T11:46:49;6.50;76.30
612;DHT22;293;53.888;11.464;2023-04-03T11:55:41;6.50;78.70
612;DHT22;293;53.888;11.464;2023-04-03T11:58:13;6.40;77.60
612;DHT22;293;53.888;11.464;2023-04-03T12:00:59;6.30;78.30
612;DHT22;293;53.888;11.464;2023-04-03T12:09:32;6.40;76.80
612;DHT22;293;53.888;11.464;2023-04-03T12:14:47;6.40;76.50
612;DHT22;293;53.888;11.464;2023-04-03T12:17:22;6.50;77.10
612;DHT22;293;53.888;11.464;2023-04-03T12:19:50;6.40;76.00
612;DHT22;293;53.888;11.464;2023-04-03T12:22:18;6.30;74.90
612;DHT22;293;53.888;11.464;2023-04-03T12:24:47;6.30;74.40
612;DHT22;293;53.888;11.464;2023-04-03T12:27:23;6.40;75.30
612;DHT22;293;53.888;11.464;2023-04-03T12:29:55;6.40;75.50
612;DHT22;293;53.888;11.464;2023-04-03T12:35:34;6.50;73.50
612;DHT22;293;53.888;11.464;2023-04-03T12:38:33;6.30;70.90
612;DHT22;293;53.888;11.464;2023-04-03T12:41:21;6.30;70.90
612;DHT22;293;53.888;11.464;2023-04-03T12:44:01;6.20;71.70
612;DHT22;293;53.888;11.464;2023-04-03T12:46:36;6.30;72.10
612;DHT22;293;53.888;11.464;2023-04-03T12:49:14;6.20;67.20
612;DHT22;293;53.888;11.464;2023-04-03T12:51:47;6.30;70.30
612;DHT22;293;53.888;11.464;2023-04-03T12:54:19;6.20;71.20
612;DHT22;293;53.888;11.464;2023-04-03T12:56:47;6.20;71.60
612;DHT22;293;53.888;11.464;2023-04-03T12:59:16;6.20;67.70
612;DHT22;293;53.888;11.464;2023-04-03T13:01:44;6.20;69.20
612;DHT22;293;53.888;11.464;2023-04-03T13:04:19;6.30;71.50
612;DHT22;293;53.888;11.464;2023-04-03T13:06:47;6.30;71.70
612;DHT22;293;53.888;11.464;2023-04-03T13:09:20;6.40;70.00
612;DHT22;293;53.888;11.464;2023-04-03T13:11:49;6.40;68.10
612;DHT22;293;53.888;11.464;2023-04-03T13:14:19;6.30;64.80
612;DHT22;293;53.888;11.464;2023-04-03T13:16:54;6.30;65.30
612;DHT22;293;53.888;11.464;2023-04-03T13:19:23;6.40;65.60
612;DHT22;293;53.888;11.464;2023-04-03T13:21:54;6.30;67.00
612;DHT22;293;53.888;11.464;2023-04-03T13:24:21;6.30;62.60
612;DHT22;293;53.888;11.464;2023-04-03T13:26:48;6.30;58.00
612;DHT22;293;53.888;11.464;2023-04-03T13:29:23;6.30;57.70
612;DHT22;293;53.888;11.464;2023-04-03T13:31:53;6.20;57.40
612;DHT22;293;53.888;11.464;2023-04-03T13:34:23;6.20;56.00
612;DHT22;293;53.888;11.464;2023-04-03T13:37:00;6.20;54.70
612;DHT22;293;53.888;11.464;2023-04-03T13:39:33;6.10;55.00
612;DHT22;293;53.888;11.464;2023-04-03T13:42:03;6.20;54.50
612;DHT22;293;53.888;11.464;2023-04-03T13:44:40;6.10;52.40
612;DHT22;293;53.888;11.464;2023-04-03T13:47:19;6.10;52.80
612;DHT22;293;53.888;11.464;2023-04-03T13:49:59;6.00;54.20
612;DHT22;293;53.888;11.464;2023-04-03T13:52:30;6.10;53.70
612;DHT22;293;53.888;11.464;2023-04-03T13:55:11;6.10;54.30
612;DHT22;293;53.888;11.464;2023-04-03T13:57:53;6.10;55.90
612;DHT22;293;53.888;11.464;2023-04-03T14:00:33;6.10;54.60
612;DHT22;293;53.888;11.464;2023-04-03T14:03:00;6.20;51.70
612;DHT22;293;53.888;11.464;2023-04-03T14:05:27;6.00;53.40
612;DHT22;293;53.888;11.464;2023-04-03T14:07:55;6.10;54.00
612;DHT22;293;53.888;11.464;2023-04-03T14:10:23;6.20;53.80
612;DHT22;293;53.888;11.464;2023-04-03T14:12:49;6.20;54.40
612;DHT22;293;53.888;11.464;2023-04-03T14:15:20;6.30;55.70
612;DHT22;293;53.888;11.464;2023-04-03T14:17:47;6.30;56.80
612;DHT22;293;53.888;11.464;2023-04-03T14:20:15;6.40;57.00
612;DHT22;293;53.888;11.464;2023-04-03T14:22:43;6.40;55.30
612;DHT22;293;53.888;11.464;2023-04-03T14:25:12;6.40;55.30
612;DHT22;293;53.888;11.464;2023-04-03T14:27:41;6.30;56.80
612;DHT22;293;53.888;11.464;2023-04-03T14:30:12;6.30;57.30
612;DHT22;293;53.888;11.464;2023-04-03T14:32:41;6.20;57.70
612;DHT22;293;53.888;11.464;2023-04-03T14:35:08;6.20;58.30
612;DHT22;293;53.888;11.464;2023-04-03T14:37:35;6.30;58.70
612;DHT22;293;53.888;11.464;2023-04-03T14:40:04;6.20;59.40
612;DHT22;293;53.888;11.464;2023-04-03T14:42:35;6.20;58.30
612;DHT22;293;53.888;11.464;2023-04-03T14:45:05;6.20;58.50
612;DHT22;293;53.888;11.464;2023-04-03T14:47:33;6.20;56.90
612;DHT22;293;53.888;11.464;2023-04-03T14:50:04;6.30;56.70
612;DHT22;293;53.888;11.464;2023-04-03T14:52:35;6.30;56.40
612;DHT22;293;53.888;11.464;2023-04-03T14:55:04;6.20;56.30
612;DHT22;293;53.888;11.464;2023-04-03T14:57:33;6.10;55.30
612;DHT22;293;53.888;11.464;2023-04-03T15:00:01;6.10;54.80
612;DHT22;293;53.888;11.464;2023-04-03T15:02:30;6.20;53.90
612;DHT22;293;53.888;11.464;2023-04-03T15:04:59;6.20;52.60
612;DHT22;293;53.888;11.464;2023-04-03T15:07:28;6.20;53.10
612;DHT22;293;53.888;11.464;2023-04-03T15:09:55;6.20;54.10
612;DHT22;293;53.888;11.464;2023-04-03T15:12:22;6.20;54.80
612;DHT22;293;53.888;11.464;2023-04-03T15:14:51;6.10;56.10
612;DHT22;293;53.888;11.464;2023-04-03T15:17:20;6.20;57.70
612;DHT22;293;53.888;11.464;2023-04-03T15:19:48;6.20;56.10
612;DHT22;293;53.888;11.464;2023-04-03T15:22:16;6.20;55.80
612;DHT22;293;53.888;11.464;2023-04-03T15:24:44;6.20;55.40
612;DHT22;293;53.888;11.464;2023-04-03T15:27:11;6.20;55.00
612;DHT22;293;53.888;11.464;2023-04-03T15:29:40;6.10;55.60
612;DHT22;293;53.888;11.464;2023-04-03T15:32:09;6.10;56.30
612;DHT22;293;53.888;11.464;2023-04-03T15:34:36;6.20;56.90
612;DHT22;293;53.888;11.464;2023-04-03T15:37:03;6.20;57.50
612;DHT22;293;53.888;11.464;2023-04-03T15:39:30;6.20;56.70
612;DHT22;293;53.888;11.464;2023-04-03T15:41:58;6.10;56.40
612;DHT22;293;53.888;11.464;2023-04-03T15:44:31;6.10;56.30
612;DHT22;293;53.888;11.464;2023-04-03T15:46:59;6.10;56.90
612;DHT22;293;53.888;11.464;2023-04-03T15:49:28;6.10;57.30
612;DHT22;293;53.888;11.464;2023-04-03T15:51:55;6.20;58.30
612;DHT22;293;53.888;11.464;2023-04-03T15:54:22;6.20;57.20
612;DHT22;293;53.888;11.464;2023-04-03T15:56:50;6.10;55.30
612;DHT22;293;53.888;11.464;2023-04-03T15:59:18;6.00;54.00
612;DHT22;293;53.888;11.464;2023-04-03T16:01:45;6.00;52.60
612;DHT22;293;53.888;11.464;2023-04-03T16:04:12;6.00;52.50
612;DHT22;293;53.888;11.464;2023-04-03T16:06:41;5.90;50.00
612;DHT22;293;53.888;11.464;2023-04-03T16:09:08;5.80;49.70
612;DHT22;293;53.888;11.464;2023-04-03T16:11:35;5.80;49.40
612;DHT22;293;53.888;11.464;2023-04-03T16:14:04;5.80;50.40
612;DHT22;293;53.888;11.464;2023-04-03T16:16:31;5.80;51.00
612;DHT22;293;53.888;11.464;2023-04-03T16:18:58;5.70;51.60
612;DHT22;293;53.888;11.464;2023-04-03T16:21:27;5.80;51.90
612;DHT22;293;53.888;11.464;2023-04-03T16:23:56;5.80;50.80
612;DHT22;293;53.888;11.464;2023-04-03T16:26:23;5.80;50.70
612;DHT22;293;53.888;11.464;2023-04-03T16:28:50;5.70;50.80
612;DHT22;293;53.888;11.464;2023-04-03T16:31:17;5.70;51.80
612;DHT22;293;53.888;11.464;2023-04-03T16:33:44;5.60;52.70
612;DHT22;293;53.888;11.464;2023-04-03T16:36:11;5.50;53.40
612;DHT22;293;53.888;11.464;2023-04-03T16:38:38;5.40;54.60
612;DHT22;293;53.888;11.464;2023-04-03T16:41:06;5.50;55.10
612;DHT22;293;53.888;11.464;2023-04-03T16:43:33;5.50;54.80
612;DHT22;293;53.888;11.464;2023-04-03T16:46:01;5.50;54.50
612;DHT22;293;53.888;11.464;2023-04-03T16:48:28;5.50;55.00
612;DHT22;293;53.888;11.464;2023-04-03T16:50:55;5.50;55.80
612;DHT22;293;53.888;11.464;2023-04-03T16:53:23;5.40;56.30
612;DHT22;293;53.888;11.464;2023-04-03T16:55:51;5.40;56.30
612;DHT22;293;53.888;11.464;2023-04-03T16:58:19;5.40;54.40
612;DHT22;293;53.888;11.464;2023-04-03T17:00:46;5.30;56.80
612;DHT22;293;53.888;11.464;2023-04-03T17:03:13;5.30;59.10
612;DHT22;293;53.888;11.464;2023-04-03T17:05:40;5.30;58.30
612;DHT22;293;53.888;11.464;2023-04-03T17:08:09;5.30;58.30
612;DHT22;293;53.888;11.464;2023-04-03T17:10:36;5.30;58.70